createdAt,value
2022-10-26T00:00:08.194Z,10.01
2022-10-26T00:01:06.318Z,9.96
2022-10-26T00:02:20.944Z,9.98
2022-10-26T00:03:08.628Z,9.93
2022-10-26T00:04:12.395Z,9.91
2022-10-26T00:05:30.529Z,9.91
2022-10-26T00:06:20.918Z,9.90
2022-10-26T00:07:25.681Z,9.90
2022-10-26T00:08:22.239Z,9.88
2022-10-26T00:09:17.722Z,9.87
2022-10-26T00:10:06.563Z,9.88
2022-10-26T00:11:46.780Z,9.85
2022-10-26T00:12:08.320Z,9.84
2022-10-26T00:13:10.570Z,9.85
2022-10-26T00:14:18.471Z,9.83
2022-10-26T00:15:19.141Z,9.78
2022-10-26T00:16:12.610Z,9.81
2022-10-26T00:17:06.661Z,9.80
2022-10-26T00:18:15.526Z,9.78
2022-10-26T00:19:14.139Z,9.78
2022-10-26T00:20:10.722Z,9.77
2022-10-26T00:21:08.793Z,9.75
2022-10-26T00:22:05.070Z,9.78
2022-10-26T00:23:47.182Z,9.77
2022-10-26T00:24:20.096Z,9.80
2022-10-26T00:25:19.733Z,9.78
2022-10-26T00:26:08.573Z,9.77
2022-10-26T00:27:05.154Z,9.78
2022-10-26T00:28:10.987Z,9.78
2022-10-26T00:29:08.574Z,9.78
2022-10-26T00:30:35.001Z,9.78
2022-10-26T00:31:07.092Z,9.78
2022-10-26T00:32:07.055Z,9.77
2022-10-26T00:33:06.657Z,9.77
2022-10-26T00:34:12.965Z,9.78
2022-10-26T00:35:15.861Z,9.78
2022-10-26T00:36:05.886Z,9.77
2022-10-26T00:37:06.215Z,9.78
2022-10-26T00:38:10.457Z,9.78
2022-10-26T00:39:20.045Z,9.81
2022-10-26T00:40:05.658Z,9.80
2022-10-26T00:41:10.937Z,9.75
2022-10-26T00:42:13.665Z,9.75
2022-10-26T00:43:06.646Z,9.78
2022-10-26T00:44:10.799Z,9.75
2022-10-26T00:45:08.482Z,9.69
2022-10-26T00:46:20.955Z,9.73
2022-10-26T00:47:20.068Z,9.73
2022-10-26T00:48:11.729Z,9.70
2022-10-26T00:49:08.074Z,9.70
2022-10-26T00:50:17.868Z,9.70
2022-10-26T00:51:05.790Z,9.69
2022-10-26T00:52:12.119Z,9.69
2022-10-26T00:53:05.614Z,9.69
2022-10-26T00:54:04.620Z,9.69
2022-10-26T00:55:07.517Z,9.67
2022-10-26T00:56:10.251Z,9.66
2022-10-26T00:57:08.370Z,9.69
2022-10-26T00:58:14.201Z,9.67
2022-10-26T00:59:05.114Z,9.66
2022-10-26T01:00:04.538Z,9.70
2022-10-26T01:01:09.114Z,9.67
2022-10-26T01:02:10.258Z,9.66
2022-10-26T01:03:16.656Z,9.66
2022-10-26T01:04:09.576Z,9.65
2022-10-26T01:05:04.653Z,9.60
2022-10-26T01:06:10.473Z,9.62
2022-10-26T01:07:08.092Z,9.59
2022-10-26T01:08:09.288Z,9.60
2022-10-26T01:09:07.913Z,9.59
2022-10-26T01:10:18.884Z,9.57
2022-10-26T01:11:08.780Z,9.59
2022-10-26T01:12:04.380Z,9.59
2022-10-26T01:13:09.515Z,9.57
2022-10-26T01:14:08.764Z,9.55
2022-10-26T01:15:04.336Z,9.57
2022-10-26T01:16:09.096Z,9.57
2022-10-26T01:17:17.484Z,9.54
2022-10-26T01:18:04.801Z,9.57
2022-10-26T01:19:04.467Z,9.54
2022-10-26T01:20:06.735Z,9.51
2022-10-26T01:21:13.106Z,9.51
2022-10-26T01:22:09.181Z,9.51
2022-10-26T01:23:06.256Z,9.51
2022-10-26T01:24:06.439Z,9.51
2022-10-26T01:25:05.316Z,9.48
2022-10-26T01:26:11.925Z,9.50
2022-10-26T01:27:25.468Z,9.47
2022-10-26T01:28:12.281Z,9.47
2022-10-26T01:29:10.408Z,9.50
2022-10-26T01:30:05.478Z,9.51
2022-10-26T01:31:05.134Z,9.50
2022-10-26T01:32:08.402Z,9.45
2022-10-26T01:33:04.087Z,9.45
2022-10-26T01:34:05.673Z,9.45
2022-10-26T01:35:06.870Z,9.42
2022-10-26T01:36:12.109Z,9.42
2022-10-26T01:37:04.630Z,9.44
2022-10-26T01:38:07.884Z,9.40
2022-10-26T01:39:04.996Z,9.40
2022-10-26T01:40:12.901Z,9.32
2022-10-26T01:41:13.092Z,9.30
2022-10-26T01:42:09.152Z,9.29
2022-10-26T01:43:08.802Z,9.26
2022-10-26T01:44:05.065Z,9.29
2022-10-26T01:45:27.152Z,9.24
2022-10-26T01:46:05.272Z,9.23
2022-10-26T01:47:11.058Z,9.23
2022-10-26T01:48:04.523Z,9.24
2022-10-26T01:49:03.874Z,9.22
2022-10-26T01:50:04.923Z,9.19
2022-10-26T01:51:17.992Z,9.19
2022-10-26T01:52:18.698Z,9.22
2022-10-26T01:53:04.999Z,9.19
2022-10-26T01:54:11.884Z,9.19
2022-10-26T01:55:09.745Z,9.15
2022-10-26T01:56:06.096Z,9.15
2022-10-26T01:57:12.243Z,9.12
2022-10-26T01:58:04.466Z,9.08
2022-10-26T01:59:10.893Z,9.06
2022-10-26T02:00:03.846Z,9.09
2022-10-26T02:01:09.256Z,9.06
2022-10-26T02:02:03.676Z,9.08
2022-10-26T02:03:15.317Z,8.99
2022-10-26T02:04:09.299Z,8.98
2022-10-26T02:05:08.996Z,8.93
2022-10-26T02:06:05.603Z,8.90
2022-10-26T02:07:05.272Z,8.83
2022-10-26T02:08:06.517Z,8.81
2022-10-26T02:09:03.638Z,8.77
2022-10-26T02:10:13.096Z,8.74
2022-10-26T02:11:13.829Z,8.72
2022-10-26T02:12:04.226Z,8.71
2022-10-26T02:13:09.069Z,8.67
2022-10-26T02:14:11.395Z,8.68
2022-10-26T02:15:06.919Z,8.63
2022-10-26T02:16:13.799Z,8.63
2022-10-26T02:17:06.290Z,8.55
2022-10-26T02:18:05.440Z,8.57
2022-10-26T02:19:10.280Z,8.55
2022-10-26T02:20:05.826Z,8.53
2022-10-26T02:21:04.503Z,8.52
2022-10-26T02:22:26.311Z,8.57
2022-10-26T02:23:03.891Z,8.50
2022-10-26T02:25:04.856Z,8.56
2022-10-26T02:26:04.001Z,8.57
2022-10-26T02:27:03.734Z,8.56
2022-10-26T02:28:03.952Z,8.60
2022-10-26T02:29:12.124Z,8.59
2022-10-26T02:30:03.303Z,8.55
2022-10-26T02:31:07.161Z,8.57
2022-10-26T02:32:06.359Z,8.56
2022-10-26T02:33:06.064Z,8.55
2022-10-26T02:34:04.794Z,8.55
2022-10-26T02:35:07.065Z,8.56
2022-10-26T02:36:16.580Z,8.56
2022-10-26T02:37:12.662Z,8.55
2022-10-26T02:38:05.163Z,8.53
2022-10-26T02:39:03.881Z,8.52
2022-10-26T02:40:09.256Z,8.52
2022-10-26T02:41:08.436Z,8.53
2022-10-26T02:42:20.480Z,8.50
2022-10-26T02:43:07.346Z,8.52
2022-10-26T02:44:03.916Z,8.53
2022-10-26T02:45:05.180Z,8.55
2022-10-26T02:46:03.324Z,8.56
2022-10-26T02:47:04.033Z,8.52
2022-10-26T02:48:07.839Z,8.52
2022-10-26T02:49:04.439Z,8.53
2022-10-26T02:50:03.117Z,8.56
2022-10-26T02:51:06.430Z,8.59
2022-10-26T02:52:06.634Z,8.53
2022-10-26T02:53:12.499Z,8.52
2022-10-26T02:54:10.148Z,8.53
2022-10-26T02:55:04.150Z,8.55
2022-10-26T02:56:03.299Z,8.53
2022-10-26T02:57:04.019Z,8.52
2022-10-26T02:58:38.749Z,8.56
2022-10-26T02:59:07.059Z,8.56
2022-10-26T03:00:06.312Z,8.57
2022-10-26T03:01:03.089Z,8.56
2022-10-26T03:02:03.132Z,8.50
2022-10-26T03:03:03.884Z,8.52
2022-10-26T03:04:03.176Z,8.53
2022-10-26T03:05:05.349Z,8.52
2022-10-26T03:06:03.518Z,8.52
2022-10-26T03:07:14.041Z,8.49
2022-10-26T03:08:02.792Z,8.49
2022-10-26T03:09:21.138Z,8.50
2022-10-26T03:10:04.494Z,8.56
2022-10-26T03:11:07.261Z,8.57
2022-10-26T03:12:03.913Z,8.55
2022-10-26T03:13:02.719Z,8.60
2022-10-26T03:14:03.823Z,8.60
2022-10-26T03:15:02.702Z,8.60
2022-10-26T03:16:02.691Z,8.57
2022-10-26T03:17:06.009Z,8.56
2022-10-26T03:18:03.667Z,8.53
2022-10-26T03:19:23.958Z,8.44
2022-10-26T03:20:04.095Z,8.39
2022-10-26T03:21:09.481Z,8.35
2022-10-26T03:22:12.275Z,8.32
2022-10-26T03:23:12.510Z,8.31
2022-10-26T03:24:05.541Z,8.31
2022-10-26T03:25:04.805Z,8.28
2022-10-26T03:26:02.935Z,8.24
2022-10-26T03:27:06.795Z,8.26
2022-10-26T03:28:03.446Z,8.26
2022-10-26T03:29:07.316Z,8.29
2022-10-26T03:30:02.482Z,8.23
2022-10-26T03:31:02.476Z,8.23
2022-10-26T03:32:06.487Z,8.23
2022-10-26T03:33:03.656Z,8.19
2022-10-26T03:34:06.977Z,8.21
2022-10-26T03:35:04.658Z,8.19
2022-10-26T03:36:15.718Z,8.19
2022-10-26T03:37:02.797Z,8.17
2022-10-26T03:38:15.250Z,8.16
2022-10-26T03:39:07.205Z,8.17
2022-10-26T03:40:17.301Z,8.19
2022-10-26T03:41:08.819Z,8.17
2022-10-26T03:42:03.451Z,8.17
2022-10-26T03:43:02.318Z,8.20
2022-10-26T03:44:05.031Z,8.21
2022-10-26T03:45:03.769Z,8.17
2022-10-26T03:46:05.594Z,8.17
2022-10-26T03:47:08.940Z,8.12
2022-10-26T03:48:02.510Z,8.12
2022-10-26T03:49:06.077Z,8.09
2022-10-26T03:51:02.292Z,8.14
2022-10-26T03:52:06.675Z,8.09
2022-10-26T03:53:13.122Z,8.06
2022-10-26T03:54:09.787Z,8.10
2022-10-26T03:55:09.011Z,8.06
2022-10-26T03:56:04.121Z,8.05
2022-10-26T03:57:02.887Z,8.06
2022-10-26T03:58:07.262Z,8.04
2022-10-26T03:59:05.010Z,8.04
2022-10-26T04:00:03.169Z,8.02
2022-10-26T04:01:03.548Z,8.02
2022-10-26T04:02:02.064Z,8.02
2022-10-26T04:03:02.471Z,7.99
2022-10-26T04:04:14.675Z,8.02
2022-10-26T04:05:10.734Z,8.04
2022-10-26T04:06:05.340Z,8.05
2022-10-26T04:07:05.083Z,8.02
2022-10-26T04:08:02.249Z,8.05
2022-10-26T04:09:14.362Z,8.02
2022-10-26T04:10:14.595Z,8.05
2022-10-26T04:11:04.583Z,8.01
2022-10-26T04:12:01.908Z,8.01
2022-10-26T04:13:08.686Z,8.01
2022-10-26T04:14:05.324Z,7.98
2022-10-26T04:15:22.035Z,7.96
2022-10-26T04:16:15.582Z,7.91
2022-10-26T04:17:09.638Z,7.87
2022-10-26T04:18:04.197Z,7.86
2022-10-26T04:19:04.105Z,7.84
2022-10-26T04:20:01.801Z,7.87
2022-10-26T04:21:01.899Z,7.86
2022-10-26T04:22:10.877Z,7.86
2022-10-26T04:23:02.418Z,7.84
2022-10-26T04:24:01.769Z,7.87
2022-10-26T04:25:07.058Z,7.86
2022-10-26T04:26:05.770Z,7.91
2022-10-26T04:27:10.657Z,7.92
2022-10-26T04:28:02.177Z,7.98
2022-10-26T04:29:06.577Z,7.99
2022-10-26T04:30:09.981Z,8.01
2022-10-26T04:31:04.050Z,8.01
2022-10-26T04:32:01.732Z,7.99
2022-10-26T04:33:14.346Z,7.99
2022-10-26T04:34:03.748Z,7.98
2022-10-26T04:35:01.970Z,7.96
2022-10-26T04:36:20.720Z,7.98
2022-10-26T04:37:04.512Z,7.99
2022-10-26T04:38:02.695Z,8.04
2022-10-26T04:39:02.458Z,8.09
2022-10-26T04:40:41.855Z,8.06
2022-10-26T04:42:17.650Z,8.09
2022-10-26T04:43:32.342Z,8.14
2022-10-26T04:43:56.030Z,8.19
2022-10-26T05:02:05.457Z,8.19
2022-10-26T05:02:11.359Z,8.85
2022-10-26T05:03:10.238Z,8.89
2022-10-26T05:04:10.225Z,8.93
2022-10-26T05:05:12.686Z,8.92
2022-10-26T05:06:10.186Z,8.95
2022-10-26T05:07:10.173Z,8.93
2022-10-26T05:08:10.169Z,9.01
2022-10-26T05:09:10.139Z,9.03
2022-10-26T05:10:10.149Z,9.04
2022-10-26T05:11:10.115Z,9.06
2022-10-26T05:12:10.109Z,9.04
2022-10-26T05:13:10.097Z,9.08
2022-10-26T05:14:10.080Z,9.04
2022-10-26T05:15:10.102Z,9.06
2022-10-26T05:16:10.049Z,9.06
2022-10-26T05:17:10.036Z,9.08
2022-10-26T05:18:10.030Z,9.09
2022-10-26T05:19:10.022Z,9.06
2022-10-26T05:20:09.996Z,9.09
2022-10-26T05:21:09.988Z,9.06
2022-10-26T05:22:09.963Z,9.04
2022-10-26T05:23:09.974Z,9.04
2022-10-26T05:24:11.720Z,9.03
2022-10-26T05:25:09.922Z,9.04
2022-10-26T05:26:09.913Z,8.99
2022-10-26T05:27:09.897Z,9.01
2022-10-26T05:28:09.895Z,9.03
2022-10-26T05:29:09.864Z,9.03
2022-10-26T05:30:09.870Z,9.01
2022-10-26T05:31:09.837Z,9.01
2022-10-26T05:32:09.858Z,8.99
2022-10-26T05:33:09.975Z,8.99
2022-10-26T05:34:09.795Z,9.01
2022-10-26T05:35:10.762Z,9.03
2022-10-26T05:36:10.087Z,9.04
2022-10-26T05:37:09.775Z,9.01
2022-10-26T05:38:09.992Z,8.99
2022-10-26T05:39:09.744Z,8.98
2022-10-26T05:40:09.735Z,9.01
2022-10-26T05:41:09.702Z,8.98
2022-10-26T05:42:09.696Z,8.99
2022-10-26T05:43:09.687Z,9.01
2022-10-26T05:44:09.708Z,8.98
2022-10-26T05:45:09.646Z,8.99
2022-10-26T05:46:09.629Z,8.99
2022-10-26T05:47:09.629Z,8.98
2022-10-26T05:48:09.611Z,8.98
2022-10-26T05:49:09.619Z,9.01
2022-10-26T05:50:09.578Z,9.01
2022-10-26T05:51:09.567Z,9.01
2022-10-26T05:52:09.597Z,9.04
2022-10-26T05:53:09.557Z,9.03
2022-10-26T05:54:13.658Z,9.09
2022-10-26T05:55:09.534Z,9.08
2022-10-26T05:56:10.769Z,9.11
2022-10-26T05:57:09.491Z,9.11
2022-10-26T05:58:10.421Z,9.08
2022-10-26T05:59:09.457Z,9.11
2022-10-26T06:00:09.441Z,9.11
2022-10-26T06:01:09.466Z,9.06
2022-10-26T06:02:10.447Z,9.08
2022-10-26T06:03:09.413Z,9.04
2022-10-26T06:04:09.382Z,9.01
2022-10-26T06:05:09.387Z,9.04
2022-10-26T06:06:09.363Z,9.03
2022-10-26T06:07:09.355Z,9.01
2022-10-26T06:08:09.336Z,9.03
2022-10-26T06:09:09.320Z,9.03
2022-10-26T06:10:09.309Z,9.01
2022-10-26T06:11:09.303Z,9.03
2022-10-26T06:12:09.283Z,8.99
2022-10-26T06:13:09.273Z,9.03
2022-10-26T06:14:09.243Z,9.03
2022-10-26T06:15:09.245Z,9.01
2022-10-26T06:16:09.224Z,9.04
2022-10-26T06:17:09.222Z,9.06
2022-10-26T06:18:09.194Z,9.04
2022-10-26T06:19:09.186Z,9.06
2022-10-26T06:20:09.207Z,9.06
2022-10-26T06:21:09.166Z,9.06
2022-10-26T06:22:09.138Z,9.03
2022-10-26T06:23:09.136Z,9.06
2022-10-26T06:24:10.069Z,9.06
2022-10-26T06:25:09.102Z,9.09
2022-10-26T06:26:09.096Z,9.09
2022-10-26T06:27:09.073Z,9.09
2022-10-26T06:28:09.056Z,9.09
2022-10-26T06:29:09.057Z,9.08
2022-10-26T06:30:09.028Z,9.09
2022-10-26T06:31:09.029Z,9.09
2022-10-26T06:32:08.997Z,9.14
2022-10-26T06:33:18.459Z,9.16
2022-10-26T06:34:09.978Z,9.16
2022-10-26T06:35:08.974Z,9.15
2022-10-26T06:36:08.957Z,9.22
2022-10-26T06:37:09.894Z,9.26
2022-10-26T06:38:08.919Z,9.26
2022-10-26T06:39:08.909Z,9.29
2022-10-26T06:40:08.889Z,9.26
2022-10-26T06:41:08.888Z,9.27
2022-10-26T06:42:08.860Z,9.29
2022-10-26T06:43:08.860Z,9.29
2022-10-26T06:44:08.841Z,9.29
2022-10-26T06:45:08.856Z,9.27
2022-10-26T06:46:08.815Z,9.27
2022-10-26T06:47:08.810Z,9.27
2022-10-26T06:48:08.813Z,9.29
2022-10-26T06:49:08.771Z,9.32
2022-10-26T06:50:08.775Z,9.33
2022-10-26T06:51:08.756Z,9.32
2022-10-26T06:52:08.742Z,9.33
2022-10-26T06:53:09.663Z,9.34
2022-10-26T06:54:08.700Z,9.33
2022-10-26T06:55:08.704Z,9.40
2022-10-26T06:56:08.673Z,9.41
2022-10-26T06:57:08.672Z,9.44
2022-10-26T06:58:08.657Z,9.44
2022-10-26T06:59:08.647Z,9.48
2022-10-26T07:00:08.625Z,9.48
2022-10-26T07:01:08.657Z,9.50
2022-10-26T07:02:08.707Z,9.51
2022-10-26T07:03:08.702Z,9.55
2022-10-26T07:04:08.565Z,9.57
2022-10-26T07:05:08.565Z,9.59
2022-10-26T07:06:08.589Z,9.62
2022-10-26T07:07:08.526Z,9.60
2022-10-26T07:08:08.520Z,9.62
2022-10-26T07:09:08.502Z,9.66
2022-10-26T07:10:08.486Z,9.69
2022-10-26T07:11:08.483Z,9.70
2022-10-26T07:12:08.457Z,9.73
2022-10-26T07:13:08.452Z,9.73
2022-10-26T07:14:08.440Z,9.72
2022-10-26T07:16:08.416Z,9.78
2022-10-26T07:17:08.398Z,9.84
2022-10-26T07:18:08.405Z,9.84
2022-10-26T07:19:08.399Z,9.84
2022-10-26T07:20:08.364Z,9.90
2022-10-26T07:21:08.329Z,9.91
2022-10-26T07:22:08.337Z,9.93
2022-10-26T07:23:08.309Z,10.01
2022-10-26T07:24:08.311Z,10.01
2022-10-26T07:25:08.292Z,10.08
2022-10-26T07:26:08.270Z,10.09
2022-10-26T07:27:08.256Z,10.12
2022-10-26T07:28:08.240Z,10.16
2022-10-26T07:29:08.230Z,10.17
2022-10-26T07:30:08.232Z,10.21
2022-10-26T07:31:08.215Z,10.24
2022-10-26T07:32:08.182Z,10.27
2022-10-26T07:33:08.183Z,10.31
2022-10-26T07:34:08.159Z,10.38
2022-10-26T07:35:08.151Z,10.41
2022-10-26T07:36:08.132Z,10.43
2022-10-26T07:37:08.113Z,10.48
2022-10-26T07:38:08.113Z,10.49
2022-10-26T07:39:08.104Z,10.54
2022-10-26T07:40:08.155Z,10.58
2022-10-26T07:41:08.062Z,10.60
2022-10-26T07:42:08.053Z,10.67
2022-10-26T07:43:08.045Z,10.70
2022-10-26T07:44:08.035Z,10.75
2022-10-26T07:45:08.035Z,10.76
2022-10-26T07:46:08.005Z,10.79
2022-10-26T07:47:07.983Z,10.82
2022-10-26T07:48:07.975Z,10.90
2022-10-26T07:49:07.966Z,10.94
2022-10-26T07:50:07.945Z,11.00
2022-10-26T07:51:07.926Z,11.01
2022-10-26T07:52:07.916Z,11.05
2022-10-26T07:53:07.904Z,11.13
2022-10-26T07:54:07.898Z,11.19
2022-10-26T07:55:07.879Z,11.23
2022-10-26T07:56:07.868Z,11.27
2022-10-26T07:57:07.855Z,11.30
2022-10-26T07:58:07.838Z,11.34
2022-10-26T07:59:07.837Z,11.40
2022-10-26T08:00:07.807Z,11.46
2022-10-26T08:01:07.920Z,11.49
2022-10-26T08:02:07.829Z,11.54
2022-10-26T08:03:07.769Z,11.58
2022-10-26T08:04:07.769Z,11.59
2022-10-26T08:05:07.750Z,11.64
2022-10-26T08:06:07.741Z,11.70
2022-10-26T08:07:07.712Z,11.70
2022-10-26T08:08:07.710Z,11.74
2022-10-26T08:09:07.701Z,11.77
2022-10-26T08:10:07.692Z,11.84
2022-10-26T08:11:07.669Z,11.84
2022-10-26T08:12:07.661Z,11.85
2022-10-26T08:13:07.635Z,11.89
2022-10-26T08:14:07.632Z,11.93
2022-10-26T08:15:07.615Z,11.93
2022-10-26T08:16:07.593Z,11.95
2022-10-26T08:17:07.583Z,11.99
2022-10-26T08:18:07.573Z,12.05
2022-10-26T08:19:07.563Z,12.08
2022-10-26T08:20:07.544Z,12.11
2022-10-26T08:21:11.249Z,12.18
2022-10-26T08:22:07.571Z,12.21
2022-10-26T08:23:07.506Z,12.18
2022-10-26T08:24:07.500Z,12.17
2022-10-26T08:25:07.485Z,12.21
2022-10-26T08:26:07.475Z,12.22
2022-10-26T08:27:07.476Z,12.21
2022-10-26T08:28:07.446Z,12.23
2022-10-26T08:29:07.426Z,12.18
2022-10-26T08:30:08.346Z,12.23
2022-10-26T08:31:07.427Z,12.23
2022-10-26T08:32:07.378Z,12.22
2022-10-26T08:33:07.397Z,12.21
2022-10-26T08:34:07.377Z,12.23
2022-10-26T08:35:08.307Z,12.22
2022-10-26T08:36:07.327Z,12.21
2022-10-26T08:37:07.318Z,12.18
2022-10-26T08:38:08.248Z,12.21
2022-10-26T08:39:07.302Z,12.22
2022-10-26T08:40:07.279Z,12.26
2022-10-26T08:41:07.269Z,12.26
2022-10-26T08:42:08.191Z,12.29
2022-10-26T08:43:07.240Z,12.33
2022-10-26T08:44:07.228Z,12.41
2022-10-26T08:45:07.221Z,12.46
2022-10-26T08:46:07.190Z,12.48
2022-10-26T08:47:07.226Z,12.53
2022-10-26T08:48:07.161Z,12.53
2022-10-26T08:49:07.169Z,12.50
2022-10-26T08:50:07.143Z,12.58
2022-10-26T08:51:07.133Z,12.61
2022-10-26T08:52:07.113Z,12.63
2022-10-26T08:53:07.119Z,12.66
2022-10-26T08:54:07.093Z,12.72
2022-10-26T08:55:07.112Z,12.79
2022-10-26T08:56:07.054Z,12.83
2022-10-26T08:57:07.054Z,12.87
2022-10-26T08:58:07.028Z,12.90
2022-10-26T08:59:07.033Z,12.95
2022-10-26T09:00:07.007Z,13.01
2022-10-26T09:01:07.103Z,13.02
2022-10-26T09:02:06.975Z,13.02
2022-10-26T09:03:06.975Z,13.05
2022-10-26T09:04:06.967Z,13.08
2022-10-26T09:05:06.945Z,13.11
2022-10-26T09:06:06.927Z,13.13
2022-10-26T09:07:06.917Z,13.14
2022-10-26T09:08:06.897Z,13.17
2022-10-26T09:09:07.158Z,13.27
2022-10-26T09:10:06.867Z,13.26
2022-10-26T09:11:06.867Z,13.30
2022-10-26T09:12:06.847Z,13.27
2022-10-26T09:13:06.857Z,13.30
2022-10-26T09:14:06.818Z,13.36
2022-10-26T09:15:06.816Z,13.39
2022-10-26T09:16:06.788Z,13.42
2022-10-26T09:17:06.787Z,13.43
2022-10-26T09:18:06.779Z,13.45
2022-10-26T09:19:06.760Z,13.45
2022-10-26T09:20:06.768Z,13.47
2022-10-26T09:21:06.730Z,13.53
2022-10-26T09:22:06.711Z,13.53
2022-10-26T09:23:06.723Z,13.53
2022-10-26T09:24:06.694Z,13.54
2022-10-26T09:25:07.813Z,13.61
2022-10-26T09:26:06.680Z,13.58
2022-10-26T09:28:06.662Z,13.68
2022-10-26T09:29:06.623Z,13.80
2022-10-26T09:30:06.612Z,13.88
2022-10-26T09:31:06.600Z,13.97
2022-10-26T09:32:06.573Z,14.08
2022-10-26T09:33:06.584Z,14.23
2022-10-26T09:34:06.563Z,14.34
2022-10-26T09:35:06.546Z,14.40
2022-10-26T09:36:06.524Z,14.52
2022-10-26T09:37:06.514Z,14.67
2022-10-26T09:38:06.512Z,14.79
2022-10-26T09:39:06.526Z,14.90
2022-10-26T09:40:06.486Z,15.03
2022-10-26T09:41:06.478Z,15.11
2022-10-26T09:42:06.468Z,15.26
2022-10-26T09:43:06.463Z,15.36
2022-10-26T09:44:06.432Z,15.47
2022-10-26T09:45:06.481Z,15.54
2022-10-26T09:46:06.397Z,15.66
2022-10-26T09:47:06.387Z,15.76
2022-10-26T09:48:07.340Z,15.78
2022-10-26T09:49:06.373Z,15.80
2022-10-26T09:50:06.361Z,15.83
2022-10-26T09:51:06.325Z,15.91
2022-10-26T09:52:06.357Z,15.96
2022-10-26T09:53:06.314Z,15.95
2022-10-26T09:54:06.285Z,16.03
2022-10-26T09:55:06.281Z,16.05
2022-10-26T09:56:06.289Z,16.06
2022-10-26T09:57:07.242Z,16.08
2022-10-26T09:58:06.268Z,16.17
2022-10-26T09:59:06.234Z,16.26
2022-10-26T10:00:06.242Z,16.28
2022-10-26T10:01:06.267Z,16.36
2022-10-26T10:02:06.222Z,16.40
2022-10-26T10:03:06.185Z,16.42
2022-10-26T10:04:06.178Z,16.42
2022-10-26T10:05:06.162Z,16.51
2022-10-26T10:06:06.124Z,16.43
2022-10-26T10:07:06.121Z,16.39
2022-10-26T10:08:06.127Z,16.40
2022-10-26T10:09:06.095Z,16.44
2022-10-26T10:10:06.098Z,16.46
2022-10-26T10:11:06.056Z,16.49
2022-10-26T10:12:06.053Z,16.47
2022-10-26T10:13:06.985Z,16.55
2022-10-26T10:14:06.031Z,16.57
2022-10-26T10:15:06.007Z,16.62
2022-10-26T10:16:06.008Z,16.65
2022-10-26T10:17:06.031Z,16.73
2022-10-26T10:18:06.941Z,16.73
2022-10-26T10:19:06.908Z,16.73
2022-10-26T10:20:05.958Z,16.72
2022-10-26T10:21:06.869Z,16.67
2022-10-26T10:22:06.880Z,16.72
2022-10-26T10:23:05.898Z,16.73
2022-10-26T10:24:05.898Z,16.76
2022-10-26T10:25:05.869Z,16.77
2022-10-26T10:26:05.867Z,16.82
2022-10-26T10:27:05.860Z,16.95
2022-10-26T10:28:05.848Z,17.12
2022-10-26T10:29:05.821Z,17.17
2022-10-26T10:30:05.813Z,17.27
2022-10-26T10:31:05.834Z,17.35
2022-10-26T10:32:05.894Z,17.43
2022-10-26T10:33:05.775Z,17.39
2022-10-26T10:34:05.759Z,17.47
2022-10-26T10:35:05.743Z,17.54
2022-10-26T10:36:05.749Z,17.53
2022-10-26T10:37:06.673Z,17.59
2022-10-26T10:38:05.723Z,17.57
2022-10-26T10:39:05.695Z,17.66
2022-10-26T10:40:05.686Z,17.75
2022-10-26T10:41:05.694Z,17.79
2022-10-26T10:42:06.605Z,17.76
2022-10-26T10:43:06.602Z,17.73
2022-10-26T10:44:05.650Z,17.75
2022-10-26T10:45:05.625Z,17.69
2022-10-26T10:46:06.565Z,17.73
2022-10-26T10:47:05.626Z,17.75
2022-10-26T10:48:05.594Z,17.86
2022-10-26T10:49:05.564Z,17.83
2022-10-26T10:50:05.547Z,17.84
2022-10-26T10:51:06.488Z,17.91
2022-10-26T10:52:05.561Z,17.96
2022-10-26T10:53:05.508Z,17.93
2022-10-26T10:54:05.510Z,17.94
2022-10-26T10:55:05.497Z,17.99
2022-10-26T10:56:07.757Z,18.03
2022-10-26T10:57:06.490Z,18.05
2022-10-26T10:58:05.440Z,18.21
2022-10-26T10:59:06.389Z,18.33
2022-10-26T11:00:05.419Z,18.41
2022-10-26T11:01:05.474Z,18.52
2022-10-26T11:02:05.520Z,18.61
2022-10-26T11:03:05.394Z,18.60
2022-10-26T11:04:05.418Z,18.68
2022-10-26T11:05:05.367Z,18.70
2022-10-26T11:06:05.329Z,18.66
2022-10-26T11:07:05.402Z,18.71
2022-10-26T11:08:05.303Z,18.70
2022-10-26T11:09:06.254Z,18.60
2022-10-26T11:10:05.283Z,18.56
2022-10-26T11:11:05.264Z,18.56
2022-10-26T11:12:05.255Z,18.48
2022-10-26T11:13:05.237Z,18.41
2022-10-26T11:14:05.233Z,18.34
2022-10-26T11:15:06.175Z,18.36
2022-10-26T11:16:06.154Z,18.38
2022-10-26T11:17:06.138Z,18.43
2022-10-26T11:18:05.211Z,18.41
2022-10-26T11:19:05.166Z,18.43
2022-10-26T11:20:05.148Z,18.38
2022-10-26T11:21:05.134Z,18.45
2022-10-26T11:22:05.148Z,18.43
2022-10-26T11:23:06.061Z,18.43
2022-10-26T11:24:05.153Z,18.43
2022-10-26T11:25:05.091Z,18.34
2022-10-26T11:26:06.012Z,18.27
2022-10-26T11:27:05.051Z,18.24
2022-10-26T11:28:05.032Z,18.26
2022-10-26T11:29:05.030Z,18.18
2022-10-26T11:30:05.007Z,18.17
2022-10-26T11:31:05.010Z,18.15
2022-10-26T11:32:04.982Z,18.17
2022-10-26T11:33:04.967Z,18.15
2022-10-26T11:34:04.953Z,18.20
2022-10-26T11:35:04.960Z,18.20
2022-10-26T11:36:04.935Z,18.17
2022-10-26T11:37:04.904Z,18.09
2022-10-26T11:38:04.894Z,18.17
2022-10-26T11:39:06.495Z,18.26
2022-10-26T11:40:04.884Z,18.34
2022-10-26T11:41:05.816Z,18.49
2022-10-26T11:42:04.845Z,18.49
2022-10-26T11:43:04.827Z,18.51
2022-10-26T11:44:04.816Z,18.54
2022-10-26T11:45:04.804Z,18.46
2022-10-26T11:46:04.797Z,18.43
2022-10-26T11:47:04.766Z,18.46
2022-10-26T11:48:05.729Z,18.48
2022-10-26T11:49:04.738Z,18.41
2022-10-26T11:50:04.730Z,18.43
2022-10-26T11:51:04.719Z,18.27
2022-10-26T11:52:04.701Z,18.21
2022-10-26T11:53:04.692Z,18.26
2022-10-26T11:54:04.691Z,18.28
2022-10-26T11:55:04.719Z,18.31
2022-10-26T11:56:04.698Z,18.33
2022-10-26T11:57:04.661Z,18.28
2022-10-26T11:58:04.621Z,18.30
2022-10-26T11:59:04.606Z,18.38
2022-10-26T12:00:04.607Z,18.43
2022-10-26T12:01:04.621Z,18.51
2022-10-26T12:02:05.554Z,18.63
2022-10-26T12:03:04.552Z,18.66
2022-10-26T12:04:04.586Z,18.70
2022-10-26T12:05:04.535Z,18.70
2022-10-26T12:06:04.546Z,18.63
2022-10-26T12:07:04.545Z,18.63
2022-10-26T12:08:04.496Z,18.60
2022-10-26T12:09:04.495Z,18.63
2022-10-26T12:10:04.467Z,18.74
2022-10-26T12:11:04.529Z,18.75
2022-10-26T12:12:04.437Z,18.76
2022-10-26T12:13:04.416Z,18.78
2022-10-26T12:14:04.407Z,18.81
2022-10-26T12:15:04.399Z,18.76
2022-10-26T12:16:04.835Z,18.76
2022-10-26T12:17:04.367Z,18.86
2022-10-26T12:18:04.367Z,18.89
2022-10-26T12:19:04.339Z,18.94
2022-10-26T12:20:04.340Z,18.86
2022-10-26T12:21:04.328Z,18.85
2022-10-26T12:22:05.257Z,18.94
2022-10-26T12:23:04.282Z,18.89
2022-10-26T12:24:04.271Z,18.71
2022-10-26T12:25:04.262Z,18.61
2022-10-26T12:26:04.250Z,18.57
2022-10-26T12:27:04.222Z,18.51
2022-10-26T12:28:04.223Z,18.45
2022-10-26T12:29:04.203Z,18.49
2022-10-26T12:30:04.204Z,18.49
2022-10-26T12:31:04.183Z,18.49
2022-10-26T12:32:04.164Z,18.43
2022-10-26T12:33:04.145Z,18.48
2022-10-26T12:34:04.134Z,18.42
2022-10-26T12:35:04.125Z,18.45
2022-10-26T12:36:04.155Z,18.48
2022-10-26T12:37:04.087Z,18.51
2022-10-26T12:38:04.078Z,18.58
2022-10-26T12:39:04.066Z,18.61
2022-10-26T12:40:04.066Z,18.68
2022-10-26T12:41:04.038Z,18.75
2022-10-26T12:42:04.027Z,18.74
2022-10-26T12:43:04.016Z,18.71
2022-10-26T12:44:06.231Z,18.75
2022-10-26T12:45:05.009Z,18.76
2022-10-26T12:46:03.969Z,18.75
2022-10-26T12:47:03.953Z,18.71
2022-10-26T12:48:10.746Z,18.68
2022-10-26T12:49:04.939Z,18.61
2022-10-26T12:50:03.930Z,18.48
2022-10-26T12:51:03.936Z,18.46
2022-10-26T12:52:03.900Z,18.38
2022-10-26T12:53:03.871Z,18.41
2022-10-26T12:54:03.872Z,18.38
2022-10-26T12:55:03.863Z,18.34
2022-10-26T12:56:03.838Z,18.42
2022-10-26T12:57:03.822Z,18.45
2022-10-26T12:58:03.816Z,18.49
2022-10-26T12:59:04.944Z,18.46
2022-10-26T13:00:03.793Z,18.48
2022-10-26T13:01:04.776Z,18.49
2022-10-26T13:02:03.762Z,18.48
2022-10-26T13:03:03.737Z,18.41
2022-10-26T13:04:03.745Z,18.42
2022-10-26T13:05:06.068Z,18.56
2022-10-26T13:06:03.700Z,18.60
2022-10-26T13:07:03.688Z,18.68
2022-10-26T13:08:04.655Z,18.70
2022-10-26T13:09:03.759Z,18.79
2022-10-26T13:10:03.657Z,18.83
2022-10-26T13:11:03.628Z,18.85
2022-10-26T13:12:03.625Z,18.83
2022-10-26T13:13:03.598Z,18.85
2022-10-26T13:14:03.619Z,18.75
2022-10-26T13:15:03.580Z,18.71
2022-10-26T13:16:03.570Z,18.66
2022-10-26T13:17:03.560Z,18.66
2022-10-26T13:18:03.550Z,18.61
2022-10-26T13:19:03.530Z,18.61
2022-10-26T13:20:03.519Z,18.58
2022-10-26T13:21:03.501Z,18.60
2022-10-26T13:22:03.492Z,18.52
2022-10-26T13:23:03.537Z,18.52
2022-10-26T13:24:03.463Z,18.58
2022-10-26T13:25:03.455Z,18.68
2022-10-26T13:26:03.459Z,18.66
2022-10-26T13:27:04.372Z,18.68